Time;durP1;ratioP1;P1;durP2;ratioP2;P2;SDS_P1;SDS_P2;PMS_P1;PMS_P2;Temp;Humidity;BMP_temperature;BMP_pressure;BME280_temperature;BME280_humidity;BME280_pressure;Samples;Min_cycle;Max_cycle;Signal;HPM_P1;HPM_P2
2022/07/14 00:01:15;;;;;;;4.40;2.63;;;22.80;1.00;;;;;;5109018;28;20174;-75
2022/07/14 00:03:41;;;;;;;11.90;2.90;;;22.80;1.00;;;;;;5108571;28;20658;-75
2022/07/14 00:06:06;;;;;;;9.90;3.10;;;22.60;1.00;;;;;;5089630;28;20182;-76
2022/07/14 00:08:32;;;;;;;3.63;2.63;;;22.50;1.00;;;;;;5104253;28;20198;-74
2022/07/14 00:10:57;;;;;;;6.73;2.87;;;22.30;1.00;;;;;;5109056;28;20224;-74
2022/07/14 00:13:23;;;;;;;6.67;3.10;;;;;;;;;;5089504;28;20590;-73
2022/07/14 00:15:49;;;;;;;4.57;2.73;;;22.30;1.00;;;;;;5109779;28;20286;-74
2022/07/14 00:18:14;;;;;;;7.43;2.53;;;22.20;1.00;;;;;;5107623;28;20319;-74
2022/07/14 00:20:40;;;;;;;4.80;3.00;;;;;;;;;;5090526;28;20217;-74
2022/07/14 00:23:06;;;;;;;5.97;2.63;;;22.10;1.00;;;;;;5105710;28;20669;-74
2022/07/14 00:25:32;;;;;;;6.40;2.70;;;22.20;1.00;;;;;;5108920;28;20769;-75
2022/07/14 00:27:57;;;;;;;5.73;2.83;;;22.10;1.00;;;;;;5105163;28;20206;-73
2022/07/14 00:30:23;;;;;;;4.23;2.70;;;;;;;;;;5109617;28;20210;-74
2022/07/14 00:32:49;;;;;;;6.83;3.03;;;22.00;1.00;;;;;;5106618;28;20186;-75
2022/07/14 00:35:15;;;;;;;5.30;2.57;;;21.90;1.00;;;;;;5091500;28;20167;-74
2022/07/14 00:37:40;;;;;;;4.77;2.93;;;21.90;1.00;;;;;;5088488;28;20780;-74
2022/07/14 00:40:07;;;;;;;4.50;2.90;;;21.90;1.00;;;;;;5108848;28;20190;-74
2022/07/14 00:42:37;;;;;;;6.03;2.90;;;21.80;1.00;;;;;;5089674;28;20612;-74
2022/07/14 00:45:17;;;;;;;3.97;2.63;;;21.80;1.00;;;;;;5084210;28;20424;-74
2022/07/14 00:47:45;;;;;;;5.47;2.87;;;21.80;1.00;;;;;;5081279;28;20456;-74
2022/07/14 00:50:12;;;;;;;4.60;2.90;;;21.70;1.00;;;;;;5107810;28;20500;-74
2022/07/14 00:52:38;;;;;;;4.00;2.80;;;;;;;;;;5088016;28;20946;-74
2022/07/14 00:55:04;;;;;;;4.93;3.00;;;21.70;1.00;;;;;;5108313;28;20555;-74
2022/07/14 00:57:30;;;;;;;5.47;2.90;;;21.70;1.00;;;;;;5090262;28;21009;-75
2022/07/14 00:59:59;;;;;;;6.20;2.90;;;21.60;1.00;;;;;;5106560;28;20494;-74
2022/07/14 01:02:24;;;;;;;3.70;2.87;;;21.60;1.00;;;;;;5089088;28;20667;-74
2022/07/14 01:04:50;;;;;;;3.90;2.97;;;21.50;1.00;;;;;;5088732;28;20433;-74
2022/07/14 01:07:17;;;;;;;4.90;3.00;;;21.50;1.00;;;;;;5104908;28;20194;-74
2022/07/14 01:09:44;;;;;;;5.10;2.90;;;21.50;1.00;;;;;;5090295;28;20756;-74
2022/07/14 01:12:10;;;;;;;5.17;2.80;;;21.40;1.00;;;;;;5106816;28;20440;-74
2022/07/14 01:14:37;;;;;;;4.63;2.67;;;21.50;1.00;;;;;;5090667;28;20474;-74
2022/07/14 01:17:03;;;;;;;5.07;2.87;;;21.40;1.00;;;;;;5103705;28;20445;-74
2022/07/14 01:19:29;;;;;;;5.00;2.97;;;21.30;1.00;;;;;;5102656;28;20550;-74
2022/07/14 01:21:56;;;;;;;3.77;2.73;;;21.30;1.00;;;;;;5106460;28;20446;-74
2022/07/14 01:24:22;;;;;;;4.47;2.80;;;21.20;1.00;;;;;;5107987;28;20517;-73
2022/07/14 01:26:48;;;;;;;7.40;3.07;;;;;;;;;;5086106;28;20440;-74
2022/07/14 01:29:13;;;;;;;4.60;2.60;;;21.20;1.00;;;;;;5107549;28;20434;-74
2022/07/14 01:31:39;;;;;;;4.60;2.73;;;21.00;1.00;;;;;;5088279;28;20459;-74
2022/07/14 01:34:05;;;;;;;3.70;2.87;;;21.00;1.00;;;;;;5095594;27;20167;-74
2022/07/14 01:36:31;;;;;;;4.20;2.90;;;20.80;1.00;;;;;;5102282;28;20508;-74
2022/07/14 01:38:57;;;;;;;5.20;3.00;;;20.70;1.00;;;;;;5106933;28;20239;-74
2022/07/14 01:41:23;;;;;;;6.07;3.50;;;21.80;1.00;;;;;;5080443;28;20746;-74
2022/07/14 01:43:49;;;;;;;6.10;3.07;;;20.70;1.00;;;;;;5106683;28;20207;-74
2022/07/14 01:46:14;;;;;;;5.40;2.97;;;20.70;1.00;;;;;;5105398;28;20560;-74
2022/07/14 01:48:40;;;;;;;4.10;3.10;;;20.60;1.00;;;;;;5105384;28;20536;-73
2022/07/14 01:51:05;;;;;;;4.60;3.00;;;21.30;1.00;;;;;;5106004;28;20556;-74
2022/07/14 01:53:31;;;;;;;6.17;3.30;;;20.30;1.00;;;;;;5104215;28;20202;-74
2022/07/14 01:55:58;;;;;;;9.60;3.50;;;20.30;1.00;;;;;;5089686;28;20179;-74
2022/07/14 01:58:24;;;;;;;7.47;3.23;;;20.40;1.00;;;;;;5106913;28;20214;-74
2022/07/14 02:03:33;;;;;;;6.30;3.40;;;20.70;1.00;;;;;;5106692;28;20556;-73
2022/07/14 02:06:00;;;;;;;5.80;3.20;;;20.10;1.00;;;;;;5088089;28;20424;-74
2022/07/14 02:08:26;;;;;;;4.53;2.90;;;20.00;1.00;;;;;;5104735;28;20267;-74
2022/07/14 02:13:36;;;;;;;5.00;3.07;;;20.00;1.00;;;;;;5102813;28;20817;-73
2022/07/14 02:16:02;;;;;;;5.20;2.80;;;20.00;1.00;;;;;;5108040;28;20503;-75
2022/07/14 02:18:28;;;;;;;4.17;2.83;;;20.10;1.00;;;;;;5108307;28;20194;-74
2022/07/14 02:20:53;;;;;;;5.47;3.13;;;20.10;1.00;;;;;;5112246;28;20419;-74
2022/07/14 02:23:19;;;;;;;6.03;2.93;;;20.10;1.00;;;;;;5085891;28;20175;-74
2022/07/14 02:25:44;;;;;;;7.00;2.97;;;20.10;1.00;;;;;;5092635;28;20431;-74
2022/07/14 02:28:10;;;;;;;7.23;3.77;;;20.10;1.00;;;;;;5111342;28;20194;-74
2022/07/14 02:30:35;;;;;;;4.97;3.30;;;20.00;1.00;;;;;;5111766;28;20200;-74
2022/07/14 02:33:01;;;;;;;4.37;2.80;;;20.00;1.00;;;;;;5091195;28;20916;-74
2022/07/14 02:35:27;;;;;;;8.37;3.30;;;20.00;1.00;;;;;;5111964;28;20551;-74
2022/07/14 02:37:52;;;;;;;9.90;3.63;;;19.80;1.00;;;;;;5109866;28;20195;-74
2022/07/14 02:40:18;;;;;;;3.33;2.60;;;19.90;1.00;;;;;;5093472;28;20547;-72
2022/07/14 02:42:43;;;;;;;3.67;2.90;;;20.10;1.00;;;;;;5110199;28;20270;-74
2022/07/14 02:45:09;;;;;;;5.20;3.00;;;20.20;1.00;;;;;;5110765;28;20175;-75
2022/07/14 02:47:35;;;;;;;4.83;2.80;;;20.30;1.00;;;;;;5106466;28;20293;-74
2022/07/14 02:50:01;;;;;;;5.73;2.93;;;20.30;1.00;;;;;;5119552;27;20594;-74
2022/07/14 02:52:26;;;;;;;3.97;2.80;;;20.40;1.00;;;;;;5111833;27;20231;-74
2022/07/14 02:54:52;;;;;;;4.00;3.07;;;20.40;1.00;;;;;;5093050;28;20349;-73
2022/07/14 02:57:17;;;;;;;4.87;2.80;;;20.50;1.00;;;;;;5111486;28;20212;-75
2022/07/14 02:59:43;;;;;;;7.20;3.10;;;21.90;1.00;;;;;;5111209;28;20174;-75
2022/07/14 03:02:09;;;;;;;3.90;2.73;;;20.50;1.00;;;;;;5071070;28;20271;-74
2022/07/14 03:04:35;;;;;;;4.00;2.70;;;20.60;1.00;;;;;;5111386;28;20236;-74
2022/07/14 03:07:01;;;;;;;4.60;3.00;;;20.60;1.00;;;;;;5110681;28;20522;-74
2022/07/14 03:09:27;;;;;;;4.80;3.20;;;20.50;1.00;;;;;;5108753;28;20574;-75
2022/07/14 03:11:53;;;;;;;5.00;2.90;;;20.40;1.00;;;;;;5091649;28;20316;-75
2022/07/14 03:14:18;;;;;;;4.70;2.70;;;20.40;1.00;;;;;;5092007;28;20523;-75
2022/07/14 03:16:44;;;;;;;5.70;2.90;;;20.40;1.00;;;;;;5109262;28;20487;-76
2022/07/14 03:19:09;;;;;;;5.90;3.00;;;22.00;1.00;;;;;;5102658;28;20227;-75
2022/07/14 03:21:35;;;;;;;3.73;2.93;;;23.70;1.00;;;;;;5110570;28;20178;-75
2022/07/14 03:24:01;;;;;;;4.20;3.10;;;20.30;1.00;;;;;;5108981;28;20533;-75
2022/07/14 03:26:30;;;;;;;5.30;3.10;;;;;;;;;;5092485;28;20419;-75
2022/07/14 03:28:56;;;;;;;7.37;3.37;;;20.10;1.00;;;;;;5109222;28;20246;-75
2022/07/14 03:31:22;;;;;;;5.00;3.20;;;;;;;;;;5109352;28;20609;-75
2022/07/14 03:33:47;;;;;;;5.00;3.13;;;20.00;1.00;;;;;;5110518;28;20258;-75
2022/07/14 03:36:13;;;;;;;9.23;3.13;;;19.90;1.00;;;;;;5091640;28;21009;-75
2022/07/14 03:38:39;;;;;;;7.03;3.53;;;19.70;1.00;;;;;;5108482;28;20642;-74
2022/07/14 03:41:05;;;;;;;6.27;3.40;;;19.80;1.00;;;;;;5110493;28;20253;-75
2022/07/14 03:43:31;;;;;;;5.90;3.60;;;19.80;1.00;;;;;;5109513;28;20610;-75
2022/07/14 03:45:56;;;;;;;5.27;3.57;;;19.80;1.00;;;;;;5110982;28;20439;-75
2022/07/14 03:48:22;;;;;;;7.83;3.30;;;20.00;1.00;;;;;;5089831;28;20222;-74
2022/07/14 03:50:48;;;;;;;6.17;3.30;;;19.70;1.00;;;;;;5110490;28;20661;-75
2022/07/14 03:53:14;;;;;;;3.97;2.90;;;;;;;;;;5084994;28;20175;-75
2022/07/14 03:55:42;;;;;;;6.00;3.50;;;19.80;1.00;;;;;;5107577;28;20710;-75
2022/07/14 03:58:07;;;;;;;11.93;3.30;;;20.00;1.00;;;;;;5108501;28;20452;-75
2022/07/14 04:00:33;;;;;;;4.60;3.27;;;19.70;1.00;;;;;;5109402;28;20428;-74
2022/07/14 04:02:59;;;;;;;11.80;3.23;;;19.60;1.00;;;;;;5088534;28;20174;-75
2022/07/14 04:05:25;;;;;;;5.33;3.30;;;19.70;1.00;;;;;;5091845;28;20557;-75
2022/07/14 04:07:50;;;;;;;7.90;2.90;;;19.60;1.00;;;;;;5108228;28;20222;-74
2022/07/14 04:10:16;;;;;;;7.50;3.57;;;;;;;;;;5110597;28;20514;-74
2022/07/14 04:12:42;;;;;;;5.53;3.47;;;19.50;1.00;;;;;;5093962;28;20753;-74
2022/07/14 04:15:08;;;;;;;4.90;3.13;;;19.60;1.00;;;;;;5092078;28;20269;-74
2022/07/14 04:17:34;;;;;;;6.13;3.10;;;;;;;;;;5108476;28;20237;-74
2022/07/14 04:19:59;;;;;;;4.93;2.87;;;19.70;1.00;;;;;;5109871;28;20178;-74
2022/07/14 04:22:25;;;;;;;7.90;3.20;;;19.80;1.00;;;;;;5107642;28;20190;-74
2022/07/14 04:24:50;;;;;;;5.97;2.77;;;19.80;1.00;;;;;;5109874;28;20281;-75
2022/07/14 04:27:16;;;;;;;4.83;3.10;;;19.90;1.00;;;;;;5108601;28;20277;-73
2022/07/14 04:29:42;;;;;;;4.30;3.10;;;19.90;1.00;;;;;;5108239;28;20193;-76
2022/07/14 04:32:07;;;;;;;6.53;3.27;;;19.90;1.00;;;;;;5106548;28;20174;-74
2022/07/14 04:34:34;;;;;;;5.63;3.80;;;20.00;1.00;;;;;;5109899;28;20171;-74
2022/07/14 04:37:00;;;;;;;6.50;3.40;;;19.90;1.00;;;;;;5107323;28;20199;-74
2022/07/14 04:39:25;;;;;;;4.50;3.10;;;19.90;1.00;;;;;;5107210;28;20424;-74
2022/07/14 04:41:51;;;;;;;4.53;3.30;;;19.80;1.00;;;;;;5107526;28;20179;-74
2022/07/14 04:44:17;;;;;;;10.33;3.30;;;19.80;1.00;;;;;;5091195;28;20395;-74
2022/07/14 04:46:43;;;;;;;8.40;3.50;;;;;;;;;;5109124;28;20523;-74
2022/07/14 04:52:02;;;;;;;6.33;3.73;;;20.00;1.00;;;;;;5106444;28;20705;-74
2022/07/14 04:54:37;;;;;;;5.00;3.13;;;20.10;1.00;;;;;;5090352;28;20404;-74
2022/07/14 04:57:06;;;;;;;3.93;3.10;;;20.20;1.00;;;;;;5108202;28;20470;-76
2022/07/14 04:59:32;;;;;;;4.50;3.50;;;20.40;1.00;;;;;;5108169;28;20845;-74
2022/07/14 05:01:58;;;;;;;6.73;3.43;;;20.50;1.00;;;;;;5108428;28;20413;-75
2022/07/14 05:04:23;;;;;;;5.07;3.47;;;20.60;1.00;;;;;;5109339;28;20205;-74
2022/07/14 05:06:49;;;;;;;4.47;3.17;;;20.70;1.00;;;;;;5107625;28;20206;-72
2022/07/14 05:09:17;;;;;;;4.10;3.20;;;20.90;1.00;;;;;;5107298;28;20545;-75
2022/07/14 05:11:43;;;;;;;4.60;3.20;;;21.10;1.00;;;;;;5105515;28;20464;-75
2022/07/14 05:14:09;;;;;;;4.57;3.07;;;21.30;1.00;;;;;;5107362;28;20959;-75
2022/07/14 05:16:35;;;;;;;7.07;3.53;;;21.50;1.00;;;;;;5107320;28;20420;-74
2022/07/14 05:19:00;;;;;;;10.50;3.60;;;21.60;1.00;;;;;;5107614;28;20529;-74
2022/07/14 05:21:26;;;;;;;5.00;3.33;;;21.70;1.00;;;;;;5105765;28;20183;-75
2022/07/14 05:23:52;;;;;;;5.23;3.50;;;21.80;1.00;;;;;;5100905;28;20209;-75
2022/07/14 05:26:18;;;;;;;13.60;3.80;;;21.90;1.00;;;;;;5106267;28;20182;-75
2022/07/14 05:28:44;;;;;;;10.83;3.50;;;22.00;1.00;;;;;;5105599;28;20444;-75
2022/07/14 05:31:09;;;;;;;9.93;3.60;;;22.10;1.00;;;;;;5083231;28;21802;-75
2022/07/14 05:33:35;;;;;;;5.57;3.30;;;22.10;1.00;;;;;;5107506;28;20311;-73
2022/07/14 05:36:02;;;;;;;5.40;3.70;;;22.30;1.00;;;;;;5107441;28;20510;-74
2022/07/14 05:38:28;;;;;;;7.13;3.57;;;22.40;1.00;;;;;;5105044;28;20237;-74
2022/07/14 05:40:54;;;;;;;4.75;3.08;;;22.50;1.00;;;;;;5105822;28;20423;-75
2022/07/14 05:43:20;;;;;;;6.60;3.40;;;23.60;1.00;;;;;;5082991;28;20754;-75
2022/07/14 05:45:46;;;;;;;5.07;3.40;;;23.00;1.00;;;;;;5107326;28;20185;-75
2022/07/14 05:48:12;;;;;;;7.60;3.80;;;23.20;1.00;;;;;;5105629;28;20190;-75
2022/07/14 05:50:37;;;;;;;4.40;3.50;;;23.40;1.00;;;;;;5087416;28;20448;-74
2022/07/14 05:53:03;;;;;;;10.70;4.47;;;;;;;;;;5101461;28;20178;-74
2022/07/14 05:55:29;;;;;;;11.47;3.93;;;;;;;;;;5105408;28;20176;-73
2022/07/14 05:57:55;;;;;;;6.10;4.07;;;;;;;;;;5105472;28;20286;-74
2022/07/14 06:00:21;;;;;;;5.73;3.60;;;23.40;1.00;;;;;;5105778;28;20224;-74
2022/07/14 06:02:46;;;;;;;6.60;3.40;;;23.50;1.00;;;;;;5103797;28;20341;-73
2022/07/14 06:05:12;;;;;;;6.63;3.40;;;23.50;1.00;;;;;;5107606;28;20181;-74
2022/07/14 06:07:38;;;;;;;6.03;3.40;;;23.60;1.00;;;;;;5101750;28;20206;-73
2022/07/14 06:10:05;;;;;;;7.30;3.70;;;23.70;1.00;;;;;;5107262;28;20290;-74
2022/07/14 06:12:37;;;;;;;6.70;4.00;;;23.70;1.00;;;;;;5107001;28;20428;-78
2022/07/14 06:15:04;;;;;;;6.97;3.50;;;23.60;1.00;;;;;;5101183;28;20459;-75
2022/07/14 06:17:31;;;;;;;6.20;3.90;;;23.40;1.00;;;;;;5084516;28;20511;-75
2022/07/14 06:20:00;;;;;;;5.47;3.70;;;;;;;;;;5108144;28;20446;-74
2022/07/14 06:22:26;;;;;;;11.80;3.50;;;23.20;1.00;;;;;;5106948;28;20874;-75
2022/07/14 06:24:52;;;;;;;11.63;4.00;;;;;;;;;;5109071;28;20404;-75
2022/07/14 06:27:18;;;;;;;6.20;3.90;;;23.40;1.00;;;;;;5090443;28;20669;-75
2022/07/14 06:29:43;;;;;;;7.83;3.70;;;26.20;1.00;;;;;;5090499;28;20179;-75
2022/07/14 06:32:09;;;;;;;5.70;3.70;;;23.50;1.00;;;;;;5107594;28;20741;-75
2022/07/14 06:34:34;;;;;;;7.77;3.37;;;23.50;1.00;;;;;;5090524;28;20170;-75
2022/07/14 06:37:00;;;;;;;10.97;3.37;;;23.60;1.00;;;;;;5107448;28;20937;-75
2022/07/14 06:39:25;;;;;;;5.20;3.80;;;23.90;1.00;;;;;;5103161;28;20632;-75
2022/07/14 06:41:51;;;;;;;11.03;3.73;;;24.10;1.00;;;;;;5108565;28;20182;-75
2022/07/14 06:44:16;;;;;;;7.40;3.93;;;24.40;1.00;;;;;;5090133;28;20170;-75
2022/07/14 06:46:42;;;;;;;9.97;3.70;;;24.60;1.00;;;;;;5106834;28;20247;-75
2022/07/14 06:49:08;;;;;;;12.13;3.50;;;;;;;;;;5108274;28;20208;-75
2022/07/14 06:51:33;;;;;;;11.30;3.70;;;24.80;1.00;;;;;;5108298;28;20205;-74
2022/07/14 06:53:59;;;;;;;6.17;3.93;;;25.00;1.00;;;;;;5089075;28;20759;-74
2022/07/14 06:56:24;;;;;;;8.67;3.80;;;24.80;1.00;;;;;;5108385;28;20174;-74
2022/07/14 06:58:50;;;;;;;4.60;3.50;;;24.80;1.00;;;;;;5088636;28;20739;-75
2022/07/14 07:01:16;;;;;;;5.40;3.67;;;;;;;;;;5089176;28;20560;-75
2022/07/14 07:03:41;;;;;;;10.80;3.40;;;25.10;1.00;;;;;;5108932;28;20671;-75
2022/07/14 07:08:51;;;;;;;4.97;3.50;;;25.30;1.00;;;;;;5111331;28;20197;-74
2022/07/14 07:11:17;;;;;;;6.33;4.13;;;25.50;1.00;;;;;;5111782;28;20876;-75
2022/07/14 07:13:42;;;;;;;7.37;3.70;;;25.70;1.00;;;;;;5093798;28;20170;-75
2022/07/14 07:16:08;;;;;;;6.43;3.60;;;25.70;1.00;;;;;;5093703;28;20290;-76
2022/07/14 07:18:35;;;;;;;6.53;3.40;;;25.80;1.00;;;;;;5111607;28;20186;-74
2022/07/14 07:21:01;;;;;;;10.60;3.83;;;26.00;1.00;;;;;;5103504;28;20732;-76
2022/07/14 07:23:27;;;;;;;4.90;3.87;;;26.40;1.00;;;;;;5110800;28;20411;-75
2022/07/14 07:25:53;;;;;;;11.97;4.27;;;27.10;1.00;;;;;;5111413;28;20170;-75
2022/07/14 07:28:18;;;;;;;17.20;3.90;;;27.50;1.00;;;;;;5111471;28;20239;-76
2022/07/14 07:30:44;;;;;;;8.13;3.87;;;28.30;1.00;;;;;;5093062;28;20198;-75
2022/07/14 07:33:10;;;;;;;8.47;4.43;;;;;;;;;;5110633;28;20585;-75
2022/07/14 07:35:36;;;;;;;5.60;3.97;;;27.50;1.00;;;;;;5112061;28;20637;-75
2022/07/14 07:38:01;;;;;;;7.13;3.90;;;27.40;1.00;;;;;;5110448;28;20202;-75
2022/07/14 07:40:27;;;;;;;11.00;4.17;;;27.50;1.00;;;;;;5112072;28;20227;-76
2022/07/14 07:42:53;;;;;;;11.80;4.10;;;27.30;1.00;;;;;;5111036;28;20518;-75
2022/07/14 07:45:18;;;;;;;6.60;3.53;;;27.10;1.00;;;;;;5111534;28;20177;-75
2022/07/14 07:47:44;;;;;;;9.77;4.10;;;27.30;1.00;;;;;;5093115;28;20210;-75
2022/07/14 07:50:10;;;;;;;6.33;4.37;;;27.60;1.00;;;;;;5111006;28;20232;-75
2022/07/14 07:52:37;;;;;;;6.37;4.03;;;27.90;1.00;;;;;;5104162;28;20724;-77
2022/07/14 07:55:08;;;;;;;10.90;3.73;;;27.90;1.00;;;;;;5092424;28;20166;-75
2022/07/14 07:57:34;;;;;;;7.47;4.20;;;27.90;1.00;;;;;;5092974;28;20187;-75
2022/07/14 07:59:59;;;;;;;10.50;4.70;;;27.90;1.00;;;;;;5110940;28;20185;-74
2022/07/14 08:02:26;;;;;;;6.30;4.30;;;28.00;1.00;;;;;;5110128;28;20199;-76
2022/07/14 08:04:52;;;;;;;9.27;4.07;;;28.00;1.00;;;;;;5092468;28;20210;-75
2022/07/14 08:07:18;;;;;;;7.03;3.83;;;28.30;1.00;;;;;;5110199;28;20201;-75
2022/07/14 08:09:44;;;;;;;6.50;4.17;;;28.60;1.00;;;;;;5110940;28;20167;-75
2022/07/14 08:12:10;;;;;;;10.50;4.37;;;28.60;1.00;;;;;;5110071;28;20593;-75
2022/07/14 08:14:47;;;;;;;8.53;4.20;;;28.90;1.00;;;;;;5092684;28;20174;-75
2022/07/14 08:17:13;;;;;;;10.37;4.53;;;28.80;1.00;;;;;;5109922;28;20178;-75
2022/07/14 08:19:39;;;;;;;6.63;4.27;;;29.00;1.00;;;;;;5110587;28;20177;-75
2022/07/14 08:22:05;;;;;;;7.13;4.43;;;29.20;1.00;;;;;;5109682;28;20174;-76
2022/07/14 08:24:31;;;;;;;8.48;4.50;;;29.40;1.00;;;;;;5110199;28;20171;-75
2022/07/14 08:26:57;;;;;;;9.15;4.60;;;29.50;1.00;;;;;;5091798;28;20719;-75
2022/07/14 08:29:22;;;;;;;6.88;3.72;;;29.70;1.00;;;;;;5110550;28;20636;-75
2022/07/14 08:31:48;;;;;;;5.95;4.05;;;29.90;1.00;;;;;;5090946;28;20198;-75
2022/07/14 08:34:14;;;;;;;8.75;4.28;;;30.10;1.00;;;;;;5091659;28;20202;-75
2022/07/14 08:36:40;;;;;;;7.20;4.32;;;30.40;1.00;;;;;;5110163;28;20445;-75
2022/07/14 08:39:06;;;;;;;7.63;4.50;;;30.40;1.00;;;;;;5103445;28;20254;-75
2022/07/14 08:41:34;;;;;;;7.53;4.30;;;30.70;1.00;;;;;;5109029;28;20262;-75
2022/07/14 08:44:00;;;;;;;8.88;3.90;;;30.90;1.00;;;;;;5074722;28;20186;-75
2022/07/14 08:46:26;;;;;;;5.90;3.72;;;31.00;1.00;;;;;;5109829;28;20174;-76
2022/07/14 08:48:53;;;;;;;6.68;4.40;;;31.10;1.00;;;;;;5109160;28;20255;-75
2022/07/14 08:51:20;;;;;;;6.13;3.85;;;31.40;1.00;;;;;;5108761;28;20725;-74
2022/07/14 08:53:46;;;;;;;5.65;3.72;;;31.40;1.00;;;;;;5088824;28;20576;-75
2022/07/14 08:56:11;;;;;;;6.30;3.80;;;31.30;1.00;;;;;;5088168;28;20259;-75
2022/07/14 08:58:39;;;;;;;8.32;3.80;;;31.30;1.00;;;;;;5097986;28;20210;-75
2022/07/14 09:01:05;;;;;;;7.35;4.00;;;31.70;1.00;;;;;;5109124;28;20173;-75
2022/07/14 09:03:31;;;;;;;5.82;3.95;;;31.80;1.00;;;;;;5091096;28;20287;-75
2022/07/14 09:05:57;;;;;;;10.30;4.00;;;31.60;1.00;;;;;;5110395;28;20598;-75
2022/07/14 09:08:22;;;;;;;6.15;3.90;;;31.50;1.00;;;;;;5108676;28;20190;-76
2022/07/14 09:10:48;;;;;;;7.43;4.28;;;32.20;1.00;;;;;;5110438;28;20194;-75
2022/07/14 09:13:18;;;;;;;6.70;4.05;;;33.70;1.00;;;;;;5109152;28;20242;-75
2022/07/14 09:15:46;;;;;;;8.07;3.97;;;35.00;1.00;;;;;;5110184;28;20249;-76
2022/07/14 09:18:26;;;;;;;7.20;4.05;;;36.20;1.00;;;;;;5108524;28;20194;-76
2022/07/14 09:20:54;;;;;;;7.45;4.40;;;36.40;1.00;;;;;;5109449;28;20306;-79
2022/07/14 09:23:35;;;;;;;10.63;4.60;;;37.00;1.00;;;;;;5082470;28;20167;-76
2022/07/14 09:26:11;;;;;;;6.95;4.55;;;38.60;1.00;;;;;;5089563;28;20174;-76
2022/07/14 09:28:41;;;;;;;7.22;4.40;;;39.80;1.00;;;;;;5096087;28;20222;-76
2022/07/14 09:31:23;;;;;;;9.00;4.57;;;39.80;1.00;;;;;;5108812;28;20533;-76
2022/07/14 09:33:50;;;;;;;5.32;4.50;;;38.90;1.00;;;;;;5108808;28;20171;-75
2022/07/14 09:36:26;;;;;;;5.45;4.03;;;38.90;1.00;;;;;;5109642;28;20235;-78
2022/07/14 09:38:55;;;;;;;7.55;4.57;;;39.60;1.00;;;;;;5089922;28;20182;-76
2022/07/14 09:41:21;;;;;;;5.88;4.65;;;39.50;1.00;;;;;;5090104;28;20628;-76
2022/07/14 09:44:07;;;;;;;11.98;4.30;;;39.30;1.00;;;;;;5109258;28;20162;-76
2022/07/14 09:46:54;;;;;;;9.00;3.78;;;39.60;1.00;;;;;;5109021;28;20686;-76
2022/07/14 09:49:21;;;;;;;7.65;3.92;;;40.30;1.00;;;;;;5108736;28;20185;-76
2022/07/14 09:52:06;;;;;;;14.65;3.97;;;40.50;1.00;;;;;;5102661;28;20195;-77
2022/07/14 09:54:37;;;;;;;10.35;3.65;;;40.50;1.00;;;;;;5108201;28;20170;-76
2022/07/14 09:57:07;;;;;;;10.77;3.70;;;41.40;1.00;;;;;;5109057;28;20565;-76
2022/07/14 09:59:52;;;;;;;5.63;3.38;;;42.20;1.00;;;;;;5109306;28;20542;-78
2022/07/14 10:02:21;;;;;;;9.82;3.78;;;42.90;1.00;;;;;;5102004;28;20211;-77
2022/07/14 10:04:48;;;;;;;6.88;4.00;;;42.60;1.00;;;;;;5090305;28;20163;-76
2022/07/14 10:07:17;;;;;;;10.63;4.07;;;41.70;1.00;;;;;;5108025;28;20191;-76
2022/07/14 10:09:54;;;;;;;7.78;3.95;;;41.20;1.00;;;;;;5090424;28;20197;-76
2022/07/14 10:12:21;;;;;;;11.60;3.90;;;41.70;1.00;;;;;;5107963;28;20246;-77
2022/07/14 10:14:48;;;;;;;6.65;3.80;;;42.60;1.00;;;;;;5090596;28;20201;-76
2022/07/14 10:17:15;;;;;;;7.00;3.60;;;43.80;1.00;;;;;;5108531;28;20198;-76
2022/07/14 10:19:41;;;;;;;7.32;3.75;;;43.80;1.00;;;;;;5089999;28;20543;-76
2022/07/14 10:22:08;;;;;;;8.52;3.58;;;44.00;1.00;;;;;;5088985;28;20249;-77
2022/07/14 10:24:35;;;;;;;6.03;3.45;;;44.30;1.00;;;;;;5108594;28;20190;-76
2022/07/14 10:27:02;;;;;;;9.15;3.75;;;43.40;1.00;;;;;;5108747;28;20560;-76
2022/07/14 10:29:28;;;;;;;5.40;3.40;;;43.30;1.00;;;;;;5090357;28;20609;-77
2022/07/14 10:32:18;;;;;;;8.13;3.50;;;43.10;1.00;;;;;;5107425;28;20194;-77
2022/07/14 10:34:59;;;;;;;6.15;3.92;;;43.60;1.00;;;;;;5108700;28;20470;-76
2022/07/14 10:37:59;;;;;;;9.07;3.47;;;43.70;1.00;;;;;;5103244;28;20814;-76
2022/07/14 10:40:43;;;;;;;5.50;3.60;;;43.50;1.00;;;;;;5106779;28;20171;-76
2022/07/14 10:43:16;;;;;;;11.60;3.80;;;42.00;1.00;;;;;;5093023;28;20680;-76
2022/07/14 10:45:49;;;;;;;9.10;3.65;;;40.80;1.00;;;;;;5094309;28;20577;-76
2022/07/14 10:48:48;;;;;;;8.20;4.20;;;41.00;1.00;;;;;;5110970;28;20542;-77
2022/07/14 10:51:14;;;;;;;9.82;4.72;;;41.30;1.00;;;;;;5067132;28;20226;-76
2022/07/14 10:54:10;;;;;;;8.40;3.90;;;41.00;1.00;;;;;;5109534;28;20170;-76
2022/07/14 10:56:37;;;;;;;8.57;3.78;;;41.00;1.00;;;;;;5112866;28;20165;-76
2022/07/14 10:59:24;;;;;;;8.23;3.70;;;41.00;1.00;;;;;;5112530;28;20269;-76
2022/07/14 11:02:26;;;;;;;6.13;3.70;;;41.40;1.00;;;;;;5111098;28;20205;-76
2022/07/14 11:07:50;;;;;;;7.18;4.25;;;41.70;1.00;;;;;;5111296;28;20467;-76
2022/07/14 11:10:18;;;;;;;5.80;3.60;;;40.80;1.00;;;;;;5111655;28;20197;-76
2022/07/14 11:12:59;;;;;;;8.43;3.70;;;39.70;1.00;;;;;;5111201;28;20158;-76
2022/07/14 11:15:42;;;;;;;9.00;3.63;;;38.90;1.00;;;;;;5112040;28;20253;-76
2022/07/14 11:18:26;;;;;;;10.95;3.92;;;37.90;1.00;;;;;;5107896;28;20354;-75
2022/07/14 11:20:58;;;;;;;8.57;3.95;;;36.70;1.00;;;;;;5111473;28;20174;-78
2022/07/14 11:23:30;;;;;;;14.20;4.20;;;36.60;1.00;;;;;;5092067;28;20175;-77
2022/07/14 11:25:59;;;;;;;8.98;4.47;;;37.10;1.00;;;;;;5111578;28;20166;-75
2022/07/14 11:28:37;;;;;;;8.23;4.70;;;37.60;1.00;;;;;;5092612;28;20195;-75
2022/07/14 11:31:15;;;;;;;6.95;3.80;;;37.60;1.00;;;;;;5084224;28;20689;-75
2022/07/14 11:36:32;;;;;;;12.15;3.83;;;39.60;1.00;;;;;;5111836;28;20174;-75
2022/07/14 11:39:16;;;;;;;6.72;3.92;;;39.60;1.00;;;;;;5092201;28;20182;-76
2022/07/14 11:41:46;;;;;;;9.43;3.90;;;41.40;1.00;;;;;;5110767;28;20174;-76
2022/07/14 11:44:40;;;;;;;10.80;3.78;;;42.00;1.00;;;;;;5111316;28;20216;-76
2022/07/14 11:47:22;;;;;;;13.40;4.15;;;43.40;1.00;;;;;;5109325;28;20277;-77
2022/07/14 11:50:00;;;;;;;6.70;3.20;;;44.40;1.00;;;;;;5110681;28;20174;-76
2022/07/14 11:52:30;;;;;;;7.47;3.55;;;44.50;1.00;;;;;;5108615;28;20297;-77
2022/07/14 11:54:57;;;;;;;6.47;3.72;;;44.30;1.00;;;;;;5091825;28;20242;-76
2022/07/14 11:57:22;;;;;;;6.35;3.60;;;42.90;1.00;;;;;;5110681;28;20179;-76
2022/07/14 11:59:48;;;;;;;7.65;3.50;;;43.30;1.00;;;;;;5110292;28;20240;-76
2022/07/14 12:02:17;;;;;;;6.47;3.25;;;44.40;1.00;;;;;;5108443;28;20174;-75
2022/07/14 12:04:51;;;;;;;8.98;3.75;;;45.20;1.00;;;;;;5107976;28;20716;-76
2022/07/14 12:07:17;;;;;;;8.88;3.70;;;45.70;1.00;;;;;;5087032;28;20206;-77
2022/07/14 12:09:42;;;;;;;8.15;3.58;;;44.90;1.00;;;;;;5100719;28;20213;-75
2022/07/14 12:12:08;;;;;;;5.13;3.40;;;44.30;1.00;;;;;;5100801;28;20646;-76
2022/07/14 12:14:43;;;;;;;6.82;4.25;;;42.90;1.00;;;;;;5109608;28;20175;-76
2022/07/14 12:17:08;;;;;;;13.35;4.20;;;40.80;1.00;;;;;;5103476;28;20213;-76
2022/07/14 12:19:36;;;;;;;11.02;4.00;;;39.70;1.00;;;;;;5109714;28;20669;-76
2022/07/14 12:22:04;;;;;;;7.75;3.80;;;38.90;1.00;;;;;;5110537;28;20442;-76
2022/07/14 12:24:31;;;;;;;8.00;4.25;;;38.20;1.00;;;;;;5091897;28;20668;-76
2022/07/14 12:27:02;;;;;;;12.13;4.00;;;38.50;1.00;;;;;;5091836;28;20202;-76
2022/07/14 12:29:28;;;;;;;8.30;4.20;;;39.10;1.00;;;;;;5085005;28;20274;-76
2022/07/14 12:31:54;;;;;;;8.35;3.97;;;40.70;1.00;;;;;;5106522;28;20277;-76
2022/07/14 12:34:20;;;;;;;14.02;4.60;;;43.00;1.00;;;;;;5089272;28;20250;-76
2022/07/14 12:36:46;;;;;;;7.93;3.30;;;45.50;1.00;;;;;;5107768;28;20179;-76
2022/07/14 12:39:12;;;;;;;7.85;3.95;;;45.60;1.00;;;;;;5106079;28;20220;-76
2022/07/14 12:41:40;;;;;;;10.43;3.65;;;46.40;1.00;;;;;;5108887;28;20231;-77
2022/07/14 12:44:10;;;;;;;7.43;3.80;;;47.40;1.00;;;;;;5109325;28;20257;-76
2022/07/14 12:46:37;;;;;;;8.93;3.85;;;46.90;1.00;;;;;;5090438;28;20181;-77
2022/07/14 12:49:07;;;;;;;6.63;3.20;;;45.00;1.00;;;;;;5108672;28;20269;-76
2022/07/14 12:51:33;;;;;;;6.53;3.50;;;44.20;1.00;;;;;;5106821;28;20197;-77
2022/07/14 12:54:19;;;;;;;8.43;3.80;;;43.60;1.00;;;;;;5089201;28;20163;-76
2022/07/14 12:56:51;;;;;;;8.88;3.72;;;41.10;1.00;;;;;;5090504;28;20258;-76
2022/07/14 12:59:21;;;;;;;13.57;3.65;;;41.10;1.00;;;;;;5108069;28;20181;-76
2022/07/14 13:01:49;;;;;;;5.18;3.70;;;41.30;1.00;;;;;;5107377;28;20258;-76
2022/07/14 13:04:46;;;;;;;9.73;3.90;;;41.70;1.00;;;;;;5107623;28;20185;-76
2022/07/14 13:07:16;;;;;;;11.77;3.97;;;41.40;1.00;;;;;;5089173;28;20199;-76
2022/07/14 13:10:03;;;;;;;6.10;3.75;;;41.80;1.00;;;;;;5090473;28;20250;-76
2022/07/14 13:12:29;;;;;;;8.73;3.70;;;42.40;1.00;;;;;;5107014;28;20179;-76
2022/07/14 13:14:56;;;;;;;9.55;4.00;;;41.50;1.00;;;;;;5101925;28;20553;-77
2022/07/14 13:17:50;;;;;;;7.75;3.60;;;41.40;1.00;;;;;;5096360;28;20597;-76
2022/07/14 13:20:47;;;;;;;10.13;3.75;;;42.10;1.00;;;;;;5102172;28;20186;-76
2022/07/14 13:23:32;;;;;;;10.30;4.30;;;41.20;1.00;;;;;;5101487;28;20243;-76